createdAt,value
2017-06-18T00:00:37.777Z,20.40
2017-06-18T00:03:05.738Z,26.23
2017-06-18T00:05:33.255Z,19.47
2017-06-18T00:08:00.794Z,20.37
2017-06-18T00:10:28.338Z,21.57
2017-06-18T00:12:55.870Z,23.13
2017-06-18T00:15:23.400Z,24.40
2017-06-18T00:17:50.953Z,23.83
2017-06-18T00:20:18.484Z,21.20
2017-06-18T00:22:46.002Z,21.77
2017-06-18T00:25:13.768Z,21.53
2017-06-18T00:27:41.294Z,23.60
2017-06-18T00:30:08.822Z,21.83
2017-06-18T00:32:36.392Z,27.87
2017-06-18T00:35:04.688Z,34.90
2017-06-18T00:37:32.234Z,27.70
2017-06-18T00:39:59.789Z,27.67
2017-06-18T00:42:28.068Z,28.17
2017-06-18T00:44:56.364Z,29.27
2017-06-18T00:47:24.215Z,33.13
2017-06-18T00:49:51.758Z,29.90
2017-06-18T00:52:19.287Z,26.50
2017-06-18T00:54:46.835Z,28.30
2017-06-18T00:57:14.354Z,26.17
2017-06-18T00:59:41.889Z,29.57
2017-06-18T01:02:09.456Z,27.80
2017-06-18T01:04:36.979Z,29.70
2017-06-18T01:07:04.505Z,24.47
2017-06-18T01:09:32.352Z,23.53
2017-06-18T01:11:59.869Z,22.50
2017-06-18T01:14:27.394Z,30.30
2017-06-18T01:16:54.942Z,23.07
2017-06-18T01:19:22.464Z,25.67
2017-06-18T01:21:50.002Z,27.60
2017-06-18T01:24:17.753Z,24.97
2017-06-18T01:26:45.289Z,22.63
2017-06-18T01:29:12.807Z,24.20
2017-06-18T01:31:40.385Z,23.23
2017-06-18T01:34:07.917Z,23.43
2017-06-18T01:36:35.438Z,25.67
2017-06-18T01:39:02.997Z,24.23
2017-06-18T01:41:30.549Z,22.77
2017-06-18T01:43:58.073Z,32.33
2017-06-18T01:46:25.639Z,26.53
2017-06-18T01:48:53.174Z,21.87
2017-06-18T01:51:20.691Z,27.73
2017-06-18T01:53:48.242Z,25.33
2017-06-18T01:56:15.758Z,25.07
2017-06-18T01:58:43.298Z,28.77
2017-06-18T02:01:10.848Z,28.60
2017-06-18T02:03:38.370Z,26.93
2017-06-18T02:06:05.887Z,28.90
2017-06-18T02:08:33.777Z,26.37
2017-06-18T02:11:02.065Z,29.50
2017-06-18T02:13:29.597Z,30.37
2017-06-18T02:15:57.164Z,26.80
2017-06-18T02:18:25.781Z,26.10
2017-06-18T02:20:53.334Z,27.83
2017-06-18T02:23:21.237Z,26.83
2017-06-18T02:25:48.771Z,25.87
2017-06-18T02:28:16.308Z,25.63
2017-06-18T02:30:43.852Z,24.53
2017-06-18T02:33:11.381Z,26.30
2017-06-18T02:35:38.918Z,22.60
2017-06-18T02:38:06.482Z,24.07
2017-06-18T02:40:34.029Z,24.53
2017-06-18T02:43:01.546Z,23.63
2017-06-18T02:45:29.092Z,23.00
2017-06-18T02:47:56.621Z,25.60
2017-06-18T02:50:24.153Z,26.07
2017-06-18T02:52:51.697Z,24.10
2017-06-18T02:55:19.226Z,26.90
2017-06-18T02:57:46.776Z,26.47
2017-06-18T03:00:14.333Z,19.93
2017-06-18T03:02:41.864Z,23.27
2017-06-18T03:05:09.379Z,22.70
2017-06-18T03:07:36.944Z,23.43
2017-06-18T03:10:16.314Z,24.00
2017-06-18T03:12:43.859Z,19.70
2017-06-18T03:15:11.391Z,23.70
2017-06-18T03:17:38.906Z,20.10
2017-06-18T03:20:06.468Z,22.50
2017-06-18T03:22:33.993Z,22.13
2017-06-18T03:25:01.517Z,21.13
2017-06-18T03:27:29.076Z,23.57
2017-06-18T03:29:56.617Z,24.30
2017-06-18T03:32:24.147Z,24.40
2017-06-18T03:34:51.693Z,22.13
2017-06-18T03:37:19.215Z,26.20
2017-06-18T03:39:47.504Z,20.40
2017-06-18T03:42:15.372Z,28.87
2017-06-18T03:44:42.896Z,22.53
2017-06-18T03:47:10.431Z,23.70
2017-06-18T03:49:37.992Z,20.30
2017-06-18T03:52:05.528Z,18.83
2017-06-18T03:54:33.047Z,28.00
2017-06-18T03:57:01.744Z,22.03
2017-06-18T03:59:30.044Z,20.50
2017-06-18T04:01:57.568Z,20.27
2017-06-18T04:04:25.123Z,21.20
2017-06-18T04:06:53.412Z,20.77
2017-06-18T04:09:20.951Z,23.57
2017-06-18T04:11:48.504Z,18.50
2017-06-18T04:14:16.740Z,18.30
2017-06-18T04:16:44.266Z,20.47
2017-06-18T04:19:12.584Z,18.57
2017-06-18T04:21:40.107Z,20.33
2017-06-18T04:24:07.634Z,21.23
2017-06-18T04:26:35.553Z,16.93
2017-06-18T04:29:03.089Z,19.33
2017-06-18T04:31:30.614Z,19.53
2017-06-18T04:33:58.181Z,21.63
2017-06-18T04:36:25.709Z,24.43
2017-06-18T04:38:53.231Z,23.70
2017-06-18T04:41:20.790Z,30.13
2017-06-18T04:43:48.312Z,19.00
2017-06-18T04:46:15.842Z,18.37
2017-06-18T04:48:43.868Z,19.30
2017-06-18T04:51:12.164Z,19.10
2017-06-18T04:53:39.687Z,21.97
2017-06-18T04:56:07.244Z,21.57
2017-06-18T04:58:35.541Z,21.17
2017-06-18T05:01:03.839Z,17.97
2017-06-18T05:03:31.407Z,17.50
2017-06-18T05:05:58.957Z,18.63
2017-06-18T05:08:26.491Z,21.53
2017-06-18T05:10:54.055Z,20.40
2017-06-18T05:13:21.588Z,17.87
2017-06-18T05:15:49.128Z,16.83
2017-06-18T05:18:16.716Z,16.03
2017-06-18T05:20:44.258Z,15.17
2017-06-18T05:23:11.799Z,16.63
2017-06-18T05:25:39.374Z,16.60
2017-06-18T05:28:06.915Z,15.90
2017-06-18T05:30:34.444Z,18.37
2017-06-18T05:33:02.008Z,17.67
2017-06-18T05:35:29.539Z,27.37
2017-06-18T05:37:57.075Z,16.40
2017-06-18T05:40:24.646Z,20.83
2017-06-18T05:42:52.188Z,19.53
2017-06-18T05:45:19.701Z,17.57
2017-06-18T05:47:47.251Z,16.67
2017-06-18T05:50:14.777Z,19.40
2017-06-18T05:52:42.320Z,17.27
2017-06-18T05:55:09.880Z,16.57
2017-06-18T05:57:37.430Z,17.20
2017-06-18T06:00:04.950Z,18.27
2017-06-18T06:02:32.531Z,18.33
2017-06-18T06:05:00.051Z,16.17
2017-06-18T06:07:27.585Z,16.30
2017-06-18T06:09:55.130Z,17.87
2017-06-18T06:12:22.658Z,20.00
2017-06-18T06:14:50.182Z,16.60
2017-06-18T06:17:17.739Z,22.07
2017-06-18T06:19:45.252Z,18.43
2017-06-18T06:22:12.776Z,20.43
2017-06-18T06:24:40.338Z,22.83
2017-06-18T06:27:07.894Z,19.50
2017-06-18T06:29:36.340Z,17.00
2017-06-18T06:32:03.906Z,18.97
2017-06-18T06:34:31.442Z,18.00
2017-06-18T06:36:58.988Z,18.73
2017-06-18T06:39:26.559Z,21.50
2017-06-18T06:41:54.094Z,23.60
2017-06-18T06:44:21.627Z,18.13
2017-06-18T06:46:49.202Z,21.00
2017-06-18T06:49:16.732Z,18.93
2017-06-18T06:51:44.277Z,19.43
2017-06-18T06:54:12.605Z,16.57
2017-06-18T06:56:40.136Z,18.87
2017-06-18T06:59:07.679Z,19.00
2017-06-18T07:01:36.013Z,16.20
2017-06-18T07:04:03.550Z,16.50
2017-06-18T07:06:31.094Z,16.37
2017-06-18T07:08:58.668Z,18.80
2017-06-18T07:11:26.197Z,18.80
2017-06-18T07:13:53.718Z,20.50
2017-06-18T07:16:21.534Z,27.27
2017-06-18T07:18:49.078Z,14.63
2017-06-18T07:21:16.600Z,16.10
2017-06-18T07:23:44.191Z,16.90
2017-06-18T07:26:11.715Z,18.10
2017-06-18T07:28:39.273Z,14.83
2017-06-18T07:31:06.843Z,14.33
2017-06-18T07:33:34.393Z,13.63
2017-06-18T07:36:01.935Z,17.10
2017-06-18T07:38:29.551Z,14.03
2017-06-18T07:40:57.072Z,14.73
2017-06-18T07:43:24.597Z,16.13
2017-06-18T07:45:52.145Z,15.70
2017-06-18T07:48:19.757Z,19.57
2017-06-18T07:50:47.379Z,16.17
2017-06-18T07:53:15.227Z,13.90
2017-06-18T07:55:42.789Z,17.13
2017-06-18T07:58:10.396Z,14.17
2017-06-18T08:00:38.042Z,16.00
2017-06-18T08:03:05.949Z,12.63
2017-06-18T08:05:33.507Z,21.30
2017-06-18T08:08:01.123Z,13.23
2017-06-18T08:10:28.753Z,15.90
2017-06-18T08:12:56.356Z,17.90
2017-06-18T08:15:24.256Z,17.03
2017-06-18T08:17:51.858Z,14.47
2017-06-18T08:20:19.385Z,16.00
2017-06-18T08:22:46.947Z,13.50
2017-06-18T08:25:15.342Z,16.47
2017-06-18T08:27:42.899Z,14.43
2017-06-18T08:30:10.462Z,12.57
2017-06-18T08:32:38.105Z,18.73
2017-06-18T08:35:05.637Z,13.10
2017-06-18T08:37:33.192Z,15.90
2017-06-18T08:40:00.750Z,17.23
2017-06-18T08:42:28.308Z,13.53
2017-06-18T08:44:55.860Z,15.23
2017-06-18T08:47:23.403Z,12.30
2017-06-18T08:49:50.937Z,13.00
2017-06-18T08:52:18.510Z,15.00
2017-06-18T08:54:46.052Z,14.90
2017-06-18T08:57:13.620Z,15.80
2017-06-18T08:59:41.189Z,13.87
2017-06-18T09:02:08.724Z,13.30
2017-06-18T09:04:36.286Z,16.47
2017-06-18T09:07:04.262Z,10.30
2017-06-18T09:09:31.833Z,15.93
2017-06-18T09:11:59.373Z,13.63
2017-06-18T09:14:27.187Z,13.37
2017-06-18T09:16:54.764Z,9.57
2017-06-18T09:19:22.322Z,11.57
2017-06-18T09:21:50.185Z,9.73
2017-06-18T09:24:18.516Z,10.90
2017-06-18T09:26:46.059Z,10.10
2017-06-18T09:29:13.985Z,9.20
2017-06-18T09:31:41.548Z,12.37
2017-06-18T09:34:09.119Z,8.97
2017-06-18T09:36:37.474Z,9.93
2017-06-18T09:39:05.124Z,9.33
2017-06-18T09:41:32.657Z,14.20
2017-06-18T09:44:00.216Z,7.77
2017-06-18T09:46:27.746Z,8.00
2017-06-18T09:48:55.297Z,8.23
2017-06-18T09:51:23.207Z,6.77
2017-06-18T09:53:50.731Z,6.97
2017-06-18T09:56:18.253Z,6.30
2017-06-18T09:58:45.872Z,7.00
2017-06-18T10:01:13.433Z,6.10
2017-06-18T10:03:40.965Z,6.83
2017-06-18T10:06:08.542Z,7.13
2017-06-18T10:08:36.079Z,6.47
2017-06-18T10:11:03.601Z,8.07
2017-06-18T10:13:31.423Z,7.33
2017-06-18T10:15:58.957Z,6.67
2017-06-18T10:18:26.517Z,6.87
2017-06-18T10:20:54.155Z,9.90
2017-06-18T10:23:27.346Z,6.00
2017-06-18T10:25:55.015Z,7.20
2017-06-18T10:28:22.576Z,6.97
2017-06-18T10:30:50.516Z,6.40
2017-06-18T10:33:18.064Z,6.00
2017-06-18T10:35:45.648Z,5.53
2017-06-18T10:38:14.177Z,6.70
2017-06-18T10:40:41.728Z,6.10
2017-06-18T10:43:09.357Z,10.63
2017-06-18T10:45:36.977Z,5.87
2017-06-18T10:48:04.595Z,6.07
2017-06-18T10:50:32.214Z,5.77
2017-06-18T10:52:59.851Z,6.23
2017-06-18T10:55:27.450Z,17.03
2017-06-18T10:57:55.056Z,5.67
2017-06-18T11:00:22.741Z,5.33
2017-06-18T11:02:50.342Z,10.97
2017-06-18T11:05:17.977Z,5.37
2017-06-18T11:07:45.518Z,5.43
2017-06-18T11:10:13.045Z,5.57
2017-06-18T11:12:40.613Z,7.80
2017-06-18T11:15:08.257Z,5.73
2017-06-18T11:17:35.779Z,7.10
2017-06-18T11:20:03.340Z,4.93
2017-06-18T11:22:30.872Z,4.23
2017-06-18T11:24:58.404Z,4.90
2017-06-18T11:27:25.972Z,5.70
2017-06-18T11:29:53.577Z,5.30
2017-06-18T11:32:21.118Z,5.77
2017-06-18T11:34:48.687Z,5.20
2017-06-18T11:37:16.582Z,5.00
2017-06-18T11:39:44.095Z,4.87
2017-06-18T11:42:11.623Z,6.30
2017-06-18T11:44:39.210Z,6.00
2017-06-18T11:47:06.789Z,4.97
2017-06-18T11:49:34.408Z,4.47
2017-06-18T11:52:01.988Z,5.77
2017-06-18T11:54:29.611Z,5.60
2017-06-18T11:56:57.138Z,4.93
2017-06-18T11:59:24.768Z,4.73
2017-06-18T12:01:52.354Z,4.00
2017-06-18T12:04:19.904Z,4.40
2017-06-18T12:06:47.498Z,5.60
2017-06-18T12:09:15.032Z,4.33
2017-06-18T12:11:42.638Z,7.33
2017-06-18T12:14:10.890Z,4.53
2017-06-18T12:16:38.413Z,5.87
2017-06-18T12:19:06.006Z,4.90
2017-06-18T12:21:33.627Z,7.67
2017-06-18T12:24:01.182Z,4.30
2017-06-18T12:26:28.817Z,4.30
2017-06-18T12:28:56.565Z,3.97
2017-06-18T12:31:24.180Z,4.60
2017-06-18T12:33:52.040Z,4.40
2017-06-18T12:36:19.774Z,4.17
2017-06-18T12:38:47.429Z,3.80
2017-06-18T12:41:15.026Z,4.03
2017-06-18T12:43:42.883Z,4.13
2017-06-18T12:46:10.426Z,4.33
2017-06-18T12:48:38.001Z,3.90
2017-06-18T12:51:05.874Z,3.70
2017-06-18T12:53:33.431Z,3.70
2017-06-18T12:56:00.972Z,3.87
2017-06-18T12:58:28.840Z,3.27
2017-06-18T13:00:56.438Z,3.13
2017-06-18T13:03:23.987Z,3.40
2017-06-18T13:05:51.580Z,2.80
2017-06-18T13:08:19.126Z,2.70
2017-06-18T13:10:46.751Z,3.60
2017-06-18T13:13:14.603Z,3.37
2017-06-18T13:15:42.166Z,3.40
2017-06-18T13:18:09.729Z,3.50
2017-06-18T13:20:37.549Z,3.50
2017-06-18T13:23:05.061Z,4.63
2017-06-18T13:25:32.626Z,5.50
2017-06-18T13:28:00.465Z,8.50
2017-06-18T13:30:28.050Z,3.10
2017-06-18T13:32:55.598Z,3.50
2017-06-18T13:35:23.174Z,3.10
2017-06-18T13:37:50.790Z,3.53
2017-06-18T13:40:18.348Z,3.00
2017-06-18T13:42:46.096Z,3.50
2017-06-18T13:45:13.638Z,3.20
2017-06-18T13:47:41.217Z,2.90
2017-06-18T13:50:09.145Z,4.13
2017-06-18T13:52:36.677Z,5.03
2017-06-18T13:55:04.253Z,3.17
2017-06-18T13:57:31.853Z,3.37
2017-06-18T13:59:59.402Z,3.33
2017-06-18T14:02:26.993Z,3.10
2017-06-18T14:04:54.573Z,2.93
2017-06-18T14:07:22.190Z,3.87
2017-06-18T14:09:49.738Z,2.57
2017-06-18T14:12:17.571Z,2.90
2017-06-18T14:14:45.120Z,2.80
2017-06-18T14:17:12.684Z,2.80
2017-06-18T14:19:40.269Z,3.90
2017-06-18T14:22:07.852Z,2.73
2017-06-18T14:24:35.395Z,2.80
2017-06-18T14:27:02.995Z,2.40
2017-06-18T14:29:30.623Z,2.70
2017-06-18T14:31:58.178Z,2.60
2017-06-18T14:34:25.779Z,2.80
2017-06-18T14:36:53.359Z,2.90
2017-06-18T14:39:20.940Z,2.90
2017-06-18T14:41:48.532Z,2.80
2017-06-18T14:44:16.083Z,2.83
2017-06-18T14:46:43.650Z,2.83
2017-06-18T14:49:11.222Z,2.77
2017-06-18T14:51:38.786Z,3.03
2017-06-18T14:54:06.355Z,2.70
2017-06-18T14:56:34.287Z,3.03
2017-06-18T14:59:01.831Z,2.60
2017-06-18T15:01:29.448Z,2.70
2017-06-18T15:03:57.350Z,3.50
2017-06-18T15:06:24.934Z,2.67
2017-06-18T15:08:52.498Z,2.73
2017-06-18T15:11:20.082Z,3.00
2017-06-18T15:13:47.602Z,2.90
2017-06-18T15:16:15.258Z,3.00
2017-06-18T15:18:43.115Z,2.83
2017-06-18T15:21:10.703Z,3.00
2017-06-18T15:23:38.241Z,2.97
2017-06-18T15:26:05.840Z,3.30
2017-06-18T15:28:33.390Z,2.83
2017-06-18T15:31:00.953Z,3.63
2017-06-18T15:33:28.613Z,3.13
2017-06-18T15:35:56.149Z,3.53
2017-06-18T15:38:24.011Z,3.70
2017-06-18T15:40:51.626Z,3.37
2017-06-18T15:43:19.163Z,3.23
2017-06-18T15:45:46.745Z,3.90
2017-06-18T15:48:14.270Z,3.27
2017-06-18T15:50:41.858Z,3.37
2017-06-18T15:53:09.447Z,3.23
2017-06-18T15:55:37.014Z,4.17
2017-06-18T15:58:04.560Z,3.37
2017-06-18T16:00:32.137Z,3.30
2017-06-18T16:02:59.748Z,3.40
2017-06-18T16:05:27.365Z,3.30
2017-06-18T16:07:56.136Z,3.17
2017-06-18T16:10:23.778Z,3.30
2017-06-18T16:12:51.354Z,2.90
2017-06-18T16:15:19.142Z,3.43
2017-06-18T16:17:46.792Z,2.80
2017-06-18T16:20:14.385Z,3.60
2017-06-18T16:22:42.949Z,2.97
2017-06-18T16:25:10.554Z,4.20
2017-06-18T16:27:38.081Z,3.13
2017-06-18T16:30:05.642Z,3.27
2017-06-18T16:32:33.469Z,3.90
2017-06-18T16:35:01.041Z,3.90
2017-06-18T16:37:28.663Z,3.30
2017-06-18T16:39:56.526Z,3.70
2017-06-18T16:42:24.164Z,3.47
2017-06-18T16:44:51.753Z,3.53
2017-06-18T16:47:19.311Z,3.40
2017-06-18T16:49:46.880Z,4.03
2017-06-18T16:52:14.467Z,4.47
2017-06-18T16:54:42.018Z,3.57
2017-06-18T16:57:09.625Z,3.43
2017-06-18T16:59:37.486Z,3.67
2017-06-18T17:02:05.060Z,3.10
2017-06-18T17:04:32.606Z,3.90
2017-06-18T17:07:00.264Z,3.63
2017-06-18T17:09:27.831Z,3.37
2017-06-18T17:11:55.371Z,3.57
2017-06-18T17:14:22.984Z,3.50
2017-06-18T17:16:50.524Z,3.50
2017-06-18T17:19:18.131Z,3.20
2017-06-18T17:21:51.272Z,3.47
2017-06-18T17:24:18.843Z,3.40
2017-06-18T17:26:46.493Z,3.20
2017-06-18T17:29:14.310Z,4.47
2017-06-18T17:31:41.923Z,6.33
2017-06-18T17:34:09.479Z,3.70
2017-06-18T17:36:42.613Z,3.73
2017-06-18T17:39:10.549Z,6.00
2017-06-18T17:41:38.515Z,4.20
2017-06-18T17:44:06.417Z,3.17
2017-06-18T17:46:34.044Z,6.23
2017-06-18T17:49:02.144Z,4.73
2017-06-18T17:51:30.148Z,3.57
2017-06-18T17:53:57.679Z,3.17
2017-06-18T17:56:25.270Z,3.17
2017-06-18T17:58:53.098Z,3.43
2017-06-18T18:01:20.766Z,3.10
2017-06-18T18:03:49.286Z,3.00
2017-06-18T18:06:16.833Z,4.17
2017-06-18T18:08:47.057Z,3.13
2017-06-18T18:11:14.700Z,4.17
2017-06-18T18:13:42.229Z,3.63
2017-06-18T18:16:09.799Z,3.93
2017-06-18T18:18:37.323Z,3.60
2017-06-18T18:21:11.477Z,2.77
2017-06-18T18:23:39.019Z,4.80
2017-06-18T18:26:06.575Z,3.80
2017-06-18T18:28:34.121Z,2.70
2017-06-18T18:31:01.698Z,2.97
2017-06-18T18:33:29.498Z,3.17
2017-06-18T18:35:57.826Z,5.47
2017-06-18T18:38:25.365Z,3.30
2017-06-18T18:40:52.891Z,2.87
2017-06-18T18:43:20.728Z,2.80
2017-06-18T18:45:48.286Z,3.53
2017-06-18T18:48:15.814Z,2.90
2017-06-18T18:50:43.594Z,3.93
2017-06-18T18:53:14.921Z,3.07
2017-06-18T18:55:44.898Z,3.20
2017-06-18T18:58:12.805Z,3.20
2017-06-18T19:00:40.950Z,3.20
2017-06-18T19:03:10.252Z,3.00
2017-06-18T19:05:38.763Z,3.03
2017-06-18T19:08:06.456Z,3.43
2017-06-18T19:10:34.181Z,3.40
2017-06-18T19:13:02.926Z,2.80
2017-06-18T19:15:31.417Z,3.00
2017-06-18T19:17:59.137Z,3.30
2017-06-18T19:20:26.734Z,3.00
2017-06-18T19:22:56.014Z,3.80
2017-06-18T19:25:25.238Z,3.13
2017-06-18T19:27:53.122Z,2.90
2017-06-18T19:30:20.926Z,3.37
2017-06-18T19:32:49.027Z,4.30
2017-06-18T19:35:17.035Z,3.47
2017-06-18T19:37:44.657Z,2.90
2017-06-18T19:40:13.210Z,5.77
2017-06-18T19:42:40.818Z,3.37
2017-06-18T19:45:09.180Z,3.00
2017-06-18T19:47:37.468Z,3.47
2017-06-18T19:50:05.065Z,3.37
2017-06-18T19:52:32.614Z,3.90
2017-06-18T19:55:00.415Z,3.40
2017-06-18T19:57:27.963Z,3.40
2017-06-18T19:59:55.530Z,3.20
2017-06-18T20:02:23.084Z,3.60
2017-06-18T20:04:50.701Z,3.33
2017-06-18T20:07:18.278Z,3.70
2017-06-18T20:09:47.359Z,4.33
2017-06-18T20:12:14.969Z,3.70
2017-06-18T20:14:44.111Z,3.87
2017-06-18T20:17:15.245Z,3.20
2017-06-18T20:19:42.991Z,4.00
2017-06-18T20:22:11.788Z,4.07
2017-06-18T20:24:40.129Z,3.40
2017-06-18T20:27:07.884Z,3.90
2017-06-18T20:29:35.477Z,7.63
2017-06-18T20:32:03.053Z,4.57
2017-06-18T20:34:30.579Z,3.63
2017-06-18T20:36:58.717Z,4.40
2017-06-18T20:39:26.291Z,3.60
2017-06-18T20:41:53.831Z,3.73
2017-06-18T20:44:21.366Z,5.30
2017-06-18T20:46:48.950Z,4.57
2017-06-18T20:49:16.570Z,4.70
2017-06-18T20:51:44.103Z,4.03
2017-06-18T20:54:11.712Z,4.40
2017-06-18T20:56:39.251Z,5.50
2017-06-18T20:59:07.576Z,5.43
2017-06-18T21:01:35.429Z,5.73
2017-06-18T21:04:02.973Z,5.53
2017-06-18T21:06:30.522Z,4.70
2017-06-18T21:08:58.105Z,4.77
2017-06-18T21:11:25.634Z,4.80
2017-06-18T21:13:53.275Z,4.60
2017-06-18T21:16:20.824Z,4.33
2017-06-18T21:18:48.381Z,4.10
2017-06-18T21:21:15.930Z,5.37
2017-06-18T21:23:43.487Z,4.90
2017-06-18T21:26:11.320Z,4.90
2017-06-18T21:28:38.984Z,4.63
2017-06-18T21:31:06.673Z,4.50
2017-06-18T21:33:34.281Z,4.47
2017-06-18T21:36:01.837Z,4.40
2017-06-18T21:38:29.397Z,4.93
2017-06-18T21:40:56.957Z,4.23
2017-06-18T21:43:24.498Z,5.23
2017-06-18T21:45:52.046Z,5.00
2017-06-18T21:48:19.563Z,4.93
2017-06-18T21:50:47.086Z,6.90
2017-06-18T21:53:15.096Z,5.87
2017-06-18T21:55:42.628Z,5.13
2017-06-18T21:58:10.159Z,4.80
2017-06-18T22:00:37.704Z,4.37
2017-06-18T22:03:05.228Z,4.80
2017-06-18T22:05:32.739Z,6.57
2017-06-18T22:08:00.312Z,5.33
2017-06-18T22:10:27.834Z,4.83
2017-06-18T22:12:55.356Z,5.50
2017-06-18T22:15:23.684Z,6.00
2017-06-18T22:17:51.240Z,6.07
2017-06-18T22:20:18.786Z,5.70
2017-06-18T22:22:46.396Z,5.70
2017-06-18T22:25:13.923Z,5.80
2017-06-18T22:27:41.441Z,5.47
2017-06-18T22:30:08.975Z,5.37
2017-06-18T22:32:36.491Z,5.53
2017-06-18T22:35:04.015Z,5.47
2017-06-18T22:37:31.578Z,5.97
2017-06-18T22:39:59.088Z,4.80
2017-06-18T22:42:26.608Z,5.43
2017-06-18T22:44:54.149Z,5.40
2017-06-18T22:47:21.668Z,5.87
2017-06-18T22:49:50.000Z,4.70
2017-06-18T22:52:17.563Z,6.60
2017-06-18T22:54:45.091Z,5.37
2017-06-18T22:57:12.610Z,5.27
2017-06-18T22:59:40.163Z,5.27
2017-06-18T23:02:07.683Z,5.53
2017-06-18T23:04:35.199Z,6.27
2017-06-18T23:07:02.756Z,5.70
2017-06-18T23:09:30.272Z,5.30
2017-06-18T23:11:57.791Z,4.67
2017-06-18T23:14:26.396Z,5.67
2017-06-18T23:16:53.926Z,8.50
2017-06-18T23:19:21.434Z,7.07
2017-06-18T23:21:48.989Z,5.73
2017-06-18T23:24:16.493Z,5.20
2017-06-18T23:26:44.023Z,5.10
2017-06-18T23:29:11.576Z,4.90
2017-06-18T23:31:39.103Z,5.20
2017-06-18T23:34:07.379Z,5.70
2017-06-18T23:36:36.059Z,4.80
2017-06-18T23:39:04.330Z,5.37
2017-06-18T23:41:32.619Z,5.30
2017-06-18T23:44:00.427Z,5.30
2017-06-18T23:46:27.956Z,4.93
2017-06-18T23:48:55.490Z,6.73
2017-06-18T23:51:23.038Z,6.83
2017-06-18T23:53:50.554Z,5.97
2017-06-18T23:56:18.068Z,5.10
2017-06-18T23:58:45.868Z,5.30
